EGNSEGGP

Guest
Details From EGNS - Isle Of Man Ronaldsway
To EGGP - Liverpool
Flight Number -
Tags generated
Created
Modified
Stats Distance 78 nm / 144 km
Max Altitude 7,600 ft / 2,316 m
Waypoints 3
Social Downloads 1
Likes 0
Share VATSIM

Download

Looking for another format? Having issues loading an existing format? Contact us
Advertisement - Login to hide

Notes

Basic altitude profile: - Ascent Rate: 2500ft/min - Ascent Speed: 340kts - Cruise Altitude: 39000ft - Cruise Speed: 450kts - Descent Rate: 1700ft/min - Descent Speed: 340kts

Route

EGNS PENIL EGGP

ID Type Via Altitude Latitude Longitude Leg Dist Tot Dist Heading (true) Name
O EGNS APT - 0 ft / 0 m 54.08283˚ -4.62548˚ - 0 nm - Isle Of Man Ronaldsway
PENIL FIX - 7,600 ft / 2,316 m 53.61611˚ -3.66361˚ 44 nm 44 nm 129° / 130° -
O EGGP APT - 0 ft / 0 m 53.33363˚ -2.84977˚ 33 nm 77 nm 120° / 121° Liverpool

Altitude Profile

Advertisement - Login to hide

EGNS

Details ICAO EGNS (IOM)
Name Isle Of Man Ronaldsway
Region United Kingdom
Timezone Europe/Isle_of_Man (UTC+0.0)
Stats Elevation 52 ft / 16 m (AMSL)
Location 54.082833° -4.625475°
Runways 2
Magnetic Variation 2.490° W

METAR

EGNS 111520Z 33005KT 9999 FEW022 03/00 Q0993 NOSIG

Decode

TAF

Not found

Departure Runways

ID Width Length Bearing (true) Bearing (mag) Surface Threshold Offset Overrun Length
03 151 ft / 46 m 4,113 ft / 1,254 m 27.91° 30.40° Asphalt 492 ft / 150 m 0 ft / 0 m
08 151 ft / 46 m 6,016 ft / 1,834 m 77.93° 80.42° Asphalt 545 ft / 166 m 0 ft / 0 m
21 151 ft / 46 m 4,113 ft / 1,254 m 207.92° 210.41° Asphalt 0 ft / 0 m 0 ft / 0 m
26 151 ft / 46 m 6,016 ft / 1,834 m 257.95° 260.44° Asphalt 486 ft / 148 m 0 ft / 0 m

EGGP

Details ICAO EGGP (LPL)
Name Liverpool
Region United Kingdom
Timezone Europe/London (UTC+0.0)
Stats Elevation 80 ft / 24 m (AMSL)
Location 53.333632° -2.849769°
Runways 1
Magnetic Variation 1.676° W

METAR

EGGP 111520Z 34005KT 310V010 CAVOK 02/M01 Q0992

Decode

TAF

TAF TAF EGGP 111102Z 1112/1212 30008KT 9999 FEW045 PROB30 TEMPO 1116/1121 8000 BECMG 1121/1124 6000 PROB30 1200/1212 0300 FZFG VV///

Decode

Destination Runways

ID Width Length Bearing (true) Bearing (mag) Surface Threshold Offset Overrun Length
09 151 ft / 46 m 7,466 ft / 2,276 m 85.59° 87.27° Asphalt 180 ft / 55 m 0 ft / 0 m
27 151 ft / 46 m 7,466 ft / 2,276 m 265.61° 267.29° Asphalt 0 ft / 0 m 0 ft / 0 m

Approach Navaids

Runway Type Ident Frequency Range Bearing (true) Bearing (mag) Slope Elevation
09 Localiser ILVR 111.75 MHz 18 nm / 33 km 85.61° 87.29° - 77 ft / 23 m (AMSL)
09 Glidescope ILVR 111.75 MHz 10 nm / 19 km 85.60° 87.28° 3.00° 80 ft / 24 m (AMSL)
09 DME ILVR 111.75 MHz 18 nm / 33 km - - - 88 ft / 27 m (AMSL)
27 Localiser ILQ 111.75 MHz 18 nm / 33 km 265.05° 266.72° - 55 ft / 17 m (AMSL)
27 Glidescope ILQ 111.75 MHz 10 nm / 19 km 265.60° 267.28° 3.00° 80 ft / 24 m (AMSL)
27 DME ILQ 111.75 MHz 18 nm / 33 km - - - 88 ft / 27 m (AMSL)

Popular Alternatives